.
WxDataArchive / Data Records for 2013-01-08
2013-01-07 January 2013 2013-01-09

Data Records for Tuesday, 08 January 2013

Time	Temp	Chill	HIndex	Humid	Dewpt	 Wind 	HiWind	WindDir	Rain 	Barom 
-----	----	-----	------	-----	-----	------	------	-------	-----	----- 
00:00	26.1	26.1	26.1	82	21.4	0	4	248	0.00	30.201 
00:05	26.3	26.3	26.3	82	21.6	1	6	248	0.00	30.201 
00:10	26.4	26.4	26.4	82	21.7	0	2	248	0.00	30.201 
00:15	26.6	26.6	26.6	81	21.6	0	2	248	0.00	30.200 
00:20	26.7	26.7	26.7	81	21.7	0	5	248	0.00	30.200 
00:25	26.7	26.7	26.7	81	21.7	0	2	248	0.00	30.200 
00:30	26.9	26.9	26.9	81	21.9	0	2	248	0.00	30.189 
00:35	27.0	27.0	27.0	81	22.0	0	3	248	0.00	30.189 
00:40	27.2	27.2	27.2	81	22.2	1	4	248	0.00	30.189 
00:45	27.2	27.2	27.2	81	22.2	1	4	248	0.00	30.191 
00:50	27.5	27.5	27.5	81	22.4	1	3	248	0.00	30.191 
00:55	27.6	27.6	27.6	81	22.5	1	4	248	0.00	30.191 
01:00	27.9	27.9	27.9	80	22.5	1	4	248	0.00	30.187 
01:05	27.9	27.9	27.9	80	22.5	1	4	248	0.00	30.187 
01:10	28.1	28.1	28.1	80	22.7	1	5	248	0.00	30.187 
01:15	28.1	28.1	28.1	79	22.4	1	4	248	0.00	30.186 
01:20	28.2	28.2	28.2	79	22.5	1	3	248	0.00	30.186 
01:25	28.2	28.2	28.2	79	22.5	1	3	248	0.00	30.186 
01:30	28.2	28.2	28.2	79	22.5	1	4	248	0.00	30.194 
01:35	28.2	28.2	28.2	79	22.5	1	4	248	0.00	30.194 
01:40	28.1	28.1	28.1	78	22.1	0	2	248	0.00	30.194 
01:45	28.1	28.1	28.1	78	22.1	1	3	248	0.00	30.201 
01:50	27.9	27.9	27.9	78	21.9	1	3	248	0.00	30.201 
01:55	27.9	27.9	27.9	78	21.9	0	2	248	0.00	30.201 
02:00	27.8	27.8	27.8	78	21.8	0	1	248	0.00	30.206 
02:05	27.6	27.6	27.6	78	21.7	0	1	248	0.00	30.206 
02:10	27.5	27.5	27.5	79	21.9	0	2	248	0.00	30.206 
02:15	27.5	27.5	27.5	79	21.9	1	3	248	0.00	30.211 
02:20	27.6	27.6	27.6	79	22.0	0	3	248	0.00	30.211 
02:25	27.8	27.8	27.8	79	22.2	0	3	248	0.00	30.211 
02:30	27.8	27.8	27.8	79	22.2	0	1	248	0.00	30.216 
02:35	27.8	27.8	27.8	79	22.2	0	1	248	0.00	30.216 
02:40	27.8	27.8	27.8	79	22.2	0	3	248	0.00	30.216 
02:45	27.8	27.8	27.8	78	21.8	0	2	248	0.00	30.217 
02:50	27.6	27.6	27.6	78	21.7	0	1	248	0.00	30.217 
02:55	27.5	27.5	27.5	78	21.6	0	1	248	0.00	30.217 
03:00	27.3	27.3	27.3	78	21.4	0	2	248	0.00	30.216 
03:05	27.3	27.3	27.3	79	21.7	0	1	248	0.00	30.216 
03:10	27.2	27.2	27.2	79	21.6	0	0	---	0.00	30.216 
03:15	27.0	27.0	27.0	79	21.4	0	1	248	0.00	30.219 
03:20	27.0	27.0	27.0	79	21.4	0	2	248	0.00	30.219 
03:25	27.0	27.0	27.0	80	21.7	0	1	248	0.00	30.219 
03:30	26.9	26.9	26.9	79	21.3	0	0	---	0.00	30.220 
03:35	26.7	26.7	26.7	80	21.4	0	0	---	0.00	30.220 
03:40	26.6	26.6	26.6	80	21.3	0	1	248	0.00	30.220 
03:45	26.4	26.4	26.4	80	21.1	0	1	248	0.00	30.217 
03:50	26.3	26.3	26.3	80	21.0	0	1	248	0.00	30.217 
03:55	26.1	26.1	26.1	80	20.8	0	0	---	0.00	30.217 
04:00	26.0	26.0	26.0	81	21.0	0	0	---	0.00	30.216 
04:05	26.0	26.0	26.0	81	21.0	0	1	248	0.00	30.216 
04:10	25.8	25.8	25.8	81	20.8	0	0	---	0.00	30.216 
04:15	25.7	25.7	25.7	81	20.7	0	1	248	0.00	30.218 
04:20	25.7	25.7	25.7	81	20.7	0	0	---	0.00	30.218 
04:25	25.6	25.6	25.6	81	20.6	0	0	---	0.00	30.218 
04:30	25.4	25.4	25.4	81	20.4	0	1	248	0.00	30.217 
04:35	25.4	25.4	25.4	81	20.4	0	1	248	0.00	30.217 
04:40	25.4	25.4	25.4	82	20.7	0	1	248	0.00	30.217 
04:45	25.4	25.4	25.4	82	20.7	0	0	---	0.00	30.214 
04:50	25.6	25.6	25.6	82	20.9	0	1	248	0.00	30.214 
04:55	25.6	25.6	25.6	82	20.9	0	1	248	0.00	30.214 
05:00	25.7	25.7	25.7	83	21.3	0	1	248	0.00	30.207 
05:05	25.7	25.7	25.7	83	21.3	0	1	248	0.00	30.207 
05:10	25.8	25.8	25.8	82	21.1	0	1	248	0.00	30.207 
05:15	25.8	25.8	25.8	83	21.4	0	1	248	0.00	30.213 
05:20	25.8	25.8	25.8	82	21.1	0	1	248	0.00	30.213 
05:25	25.8	25.8	25.8	82	21.1	0	0	---	0.00	30.213 
05:30	25.7	25.7	25.7	83	21.3	0	1	248	0.00	30.206 
05:35	25.8	25.8	25.8	83	21.4	0	1	248	0.00	30.206 
05:40	25.8	25.8	25.8	83	21.4	0	1	248	0.00	30.206 
05:45	25.8	25.8	25.8	82	21.1	0	0	---	0.00	30.210 
05:50	25.8	25.8	25.8	83	21.4	0	2	248	0.00	30.210 
05:55	26.0	26.0	26.0	82	21.3	0	1	248	0.00	30.210 
06:00	26.0	26.0	26.0	82	21.3	0	1	248	0.00	30.213 
06:05	26.0	26.0	26.0	82	21.3	0	2	248	0.00	30.213 
06:10	26.0	26.0	26.0	82	21.3	0	3	248	0.00	30.213 
06:15	26.0	26.0	26.0	82	21.3	0	1	248	0.00	30.219 
06:20	26.0	26.0	26.0	82	21.3	0	2	248	0.00	30.219 
06:25	26.0	26.0	26.0	82	21.3	0	0	---	0.00	30.219 
06:30	25.8	25.8	25.8	82	21.1	0	1	248	0.00	30.220 
06:35	25.6	25.6	25.6	81	20.6	0	1	248	0.00	30.220 
06:40	25.6	25.6	25.6	82	20.9	0	1	248	0.00	30.220 
06:45	25.4	25.4	25.4	82	20.7	0	1	248	0.00	30.225 
06:50	25.4	25.4	25.4	82	20.7	0	1	248	0.00	30.225 
06:55	25.4	25.4	25.4	82	20.7	0	1	248	0.00	30.225 
07:00	25.4	25.4	25.4	82	20.7	0	1	248	0.00	30.228 
07:05	25.4	25.4	25.4	82	20.7	0	1	248	0.00	30.228 
07:10	25.3	25.3	25.3	82	20.6	0	0	---	0.00	30.228 
07:15	25.1	25.1	25.1	82	20.4	0	1	248	0.00	30.227 
07:20	25.0	25.0	25.0	82	20.3	0	0	---	0.00	30.227 
07:25	24.8	24.8	24.8	82	20.1	0	0	---	0.00	30.227 
07:30	24.8	24.8	24.8	82	20.1	0	0	---	0.00	30.236 
07:35	24.7	24.7	24.7	82	20.0	0	0	---	0.00	30.236 
07:40	24.5	24.5	24.5	83	20.1	0	0	---	0.00	30.236 
07:45	24.4	24.4	24.4	83	20.0	0	0	---	0.00	30.238 
07:50	24.2	24.2	24.2	83	19.8	0	0	---	0.00	30.238 
07:55	24.1	24.1	24.1	83	19.7	0	1	248	0.00	30.238 
08:00	24.1	24.1	24.1	83	19.7	0	1	248	0.00	30.237 
08:05	24.1	24.1	24.1	83	19.7	0	0	---	0.00	30.237 
08:10	23.9	23.9	23.9	83	19.5	0	1	248	0.00	30.237 
08:15	23.8	23.8	23.8	84	19.7	0	0	---	0.00	30.244 
08:20	23.8	23.8	23.8	84	19.7	0	0	---	0.00	30.244 
08:25	23.8	23.8	23.8	84	19.7	0	0	---	0.00	30.244 
08:30	23.8	23.8	23.8	84	19.7	0	1	248	0.00	30.256 
08:35	23.9	23.9	23.9	84	19.8	0	0	---	0.00	30.256 
08:40	24.2	24.2	24.2	84	20.1	0	1	248	0.00	30.256 
08:45	24.4	24.4	24.4	84	20.3	0	1	248	0.00	30.259 
08:50	24.7	24.7	24.7	84	20.6	0	0	---	0.00	30.259 
08:55	25.0	25.0	25.0	84	20.9	0	2	248	0.00	30.259 
09:00	25.4	25.4	25.4	84	21.3	0	2	248	0.00	30.262 
09:05	25.7	25.7	25.7	84	21.5	0	1	248	0.00	30.262 
09:10	26.0	26.0	26.0	83	21.6	0	2	248	0.00	30.262 
09:15	26.3	26.3	26.3	82	21.6	0	2	248	0.00	30.269 
09:20	26.6	26.6	26.6	82	21.9	0	2	248	0.00	30.269 
09:25	26.9	26.9	26.9	81	21.9	0	2	248	0.00	30.269 
09:30	27.2	27.2	27.2	80	21.9	0	1	248	0.00	30.271 
09:35	27.5	27.5	27.5	80	22.2	0	3	248	0.00	30.271 
09:40	27.8	27.8	27.8	79	22.2	0	3	248	0.00	30.271 
09:45	28.1	28.1	28.1	78	22.1	0	3	248	0.00	30.272 
09:50	28.5	28.5	28.5	78	22.5	0	3	248	0.00	30.272 
09:55	28.8	28.8	28.8	77	22.5	0	2	248	0.00	30.272 
10:00	29.3	29.3	29.3	77	23.0	0	3	248	0.00	30.283 
10:05	29.8	29.8	29.8	76	23.2	0	3	248	0.00	30.283 
10:10	30.3	30.3	30.3	75	23.3	1	4	248	0.00	30.283 
10:15	30.6	30.6	30.6	75	23.6	0	2	248	0.00	30.284 
10:20	31.0	31.0	31.0	74	23.7	1	3	248	0.00	30.284 
10:25	31.5	31.5	31.5	73	23.9	1	4	248	0.00	30.284 
10:30	31.8	31.8	31.8	72	23.8	0	3	248	0.00	30.283 
10:35	32.1	32.1	32.1	72	24.1	0	4	112	0.00	30.283 
10:40	32.2	32.2	32.2	71	23.9	1	4	248	0.00	30.283 
10:45	32.5	32.5	32.5	70	23.8	1	5	248	0.00	30.288 
10:50	32.7	32.7	32.7	70	24.0	1	4	248	0.00	30.288 
10:55	32.9	32.9	32.9	69	23.9	1	4	248	0.00	30.288 
11:00	33.2	33.2	33.2	69	24.2	1	3	248	0.00	30.286 
11:05	33.5	33.5	33.5	69	24.4	0	3	248	0.00	30.286 
11:10	33.7	33.7	33.7	68	24.3	1	4	248	0.00	30.286 
11:15	33.7	33.7	33.7	68	24.3	1	3	248	0.00	30.279 
11:20	33.8	33.8	33.8	68	24.4	1	4	248	0.00	30.279 
11:25	34.1	34.1	34.1	68	24.7	0	3	248	0.00	30.279 
11:30	34.3	34.3	34.3	67	24.5	1	5	248	0.00	30.274 
11:35	34.4	34.4	34.4	67	24.6	1	3	248	0.00	30.274 
11:40	34.7	34.7	34.7	66	24.5	1	4	248	0.00	30.274 
11:45	34.7	34.7	34.7	66	24.5	1	3	248	0.00	30.263 
11:50	34.9	34.9	34.9	66	24.7	1	3	248	0.00	30.263 
11:55	35.2	35.2	35.2	66	25.0	0	3	248	0.00	30.263 
12:00	35.5	35.5	35.5	65	24.9	1	3	248	0.00	30.249 
12:05	35.9	35.9	35.9	65	25.3	1	5	248	0.00	30.249 
12:10	36.2	36.2	36.2	64	25.2	1	5	248	0.00	30.249 
12:15	36.3	36.3	36.3	63	24.9	1	3	248	0.00	30.243 
12:20	36.5	36.5	36.5	63	25.1	1	4	248	0.00	30.243 
12:25	36.6	36.6	36.6	62	24.8	1	3	248	0.00	30.243 
12:30	36.8	36.8	36.8	62	25.0	1	3	248	0.00	30.238 
12:35	36.9	36.9	36.9	62	25.1	1	3	248	0.00	30.238 
12:40	37.0	37.0	37.0	61	24.8	1	5	248	0.00	30.238 
12:45	37.2	37.2	37.2	61	25.0	1	6	248	0.00	30.237 
12:50	37.3	37.3	37.3	62	25.5	0	2	248	0.00	30.237 
12:55	37.5	37.5	37.5	61	25.3	0	3	248	0.00	30.237 
13:00	37.6	37.6	37.6	61	25.4	1	3	248	0.00	30.234 
13:05	37.6	37.6	37.6	61	25.4	1	4	248	0.00	30.234 
13:10	37.6	37.6	37.6	61	25.4	1	5	248	0.00	30.234 
13:15	37.6	37.6	37.6	61	25.4	1	4	248	0.00	30.227 
13:20	37.6	37.6	37.6	61	25.4	1	4	248	0.00	30.227 
13:25	37.9	37.9	37.9	61	25.7	0	3	248	0.00	30.227 
13:30	38.2	38.2	38.2	60	25.6	1	3	248	0.01	30.231 
13:35	38.3	38.3	38.3	60	25.6	0	3	248	0.00	30.231 
13:40	38.5	38.5	38.5	61	26.2	0	1	248	0.00	30.231 
13:45	38.5	38.5	38.5	62	26.6	0	2	248	0.00	30.228 
13:50	38.3	38.3	38.3	61	26.0	1	2	248	0.00	30.228 
13:55	38.2	38.2	38.2	62	26.3	1	2	248	0.00	30.228 
14:00	38.3	38.3	38.3	63	26.8	0	1	248	0.00	30.227 
14:05	38.5	38.5	38.5	62	26.6	0	3	248	0.00	30.227 
14:10	38.6	38.6	38.6	61	26.3	1	3	248	0.00	30.227 
14:15	38.3	38.3	38.3	61	26.0	2	4	270	0.00	30.226 
14:20	38.5	38.5	38.5	62	26.6	1	3	0	0.00	30.226 
14:25	38.5	38.5	38.5	61	26.2	1	5	90	0.00	30.226 
14:30	38.9	38.9	38.9	61	26.6	1	3	292	0.00	30.223 
14:35	39.1	39.1	39.1	60	26.4	1	5	90	0.00	30.223 
14:40	39.1	39.1	39.1	61	26.8	1	4	292	0.00	30.223 
14:45	39.1	39.1	39.1	59	26.0	2	6	112	0.00	30.218 
14:50	39.3	39.3	39.3	60	26.6	1	4	90	0.00	30.218 
14:55	39.3	39.3	39.3	60	26.6	1	4	225	0.00	30.218 
15:00	39.5	39.5	39.5	59	26.4	1	4	270	0.00	30.218 
15:05	39.6	39.6	39.6	59	26.5	1	3	270	0.00	30.218 
15:10	39.8	39.8	39.8	59	26.7	1	5	45	0.00	30.218 
15:15	39.9	39.9	39.9	59	26.7	1	4	45	0.00	30.222 
15:20	40.1	40.1	40.1	59	26.9	1	4	0	0.00	30.222 
15:25	40.1	40.1	40.1	58	26.5	1	4	248	0.00	30.222 
15:30	40.3	40.3	40.3	59	27.1	0	2	248	0.00	30.226 
15:35	40.6	40.6	40.6	58	27.0	1	3	248	0.00	30.226 
15:40	40.3	40.3	40.3	59	27.1	1	4	90	0.01	30.226 
15:45	40.1	40.1	40.1	59	26.9	1	3	90	0.00	30.226 
15:50	39.9	39.9	39.9	61	27.6	0	1	90	0.00	30.226 
15:55	39.8	39.8	39.8	61	27.5	1	4	90	0.00	30.226 
16:00	39.8	39.8	39.8	60	27.1	1	3	90	0.00	30.229 
16:05	39.6	39.6	39.6	61	27.3	1	3	112	0.00	30.229 
16:10	39.5	39.5	39.5	61	27.2	0	2	112	0.00	30.229 
16:15	39.2	39.2	39.2	62	27.3	1	2	112	0.00	30.236 
16:20	38.9	38.9	38.9	63	27.4	1	3	135	0.00	30.236 
16:25	38.6	38.6	38.6	63	27.1	1	4	135	0.01	30.236 
16:30	38.6	38.6	38.6	63	27.1	0	2	112	0.00	30.234 
16:35	38.5	38.5	38.5	63	27.0	0	1	112	0.00	30.234 
16:40	38.3	38.3	38.3	63	26.8	1	2	112	0.00	30.234 
16:45	38.2	38.2	38.2	64	27.1	0	2	112	0.00	30.235 
16:50	38.2	38.2	38.2	64	27.1	0	2	112	0.00	30.235 
16:55	38.2	38.2	38.2	64	27.1	0	2	112	0.00	30.235 
17:00	38.0	38.0	38.0	64	26.9	0	2	112	0.00	30.234 
17:05	38.0	38.0	38.0	64	26.9	0	2	112	0.00	30.234 
17:10	37.9	37.9	37.9	65	27.2	0	1	112	0.00	30.234 
17:15	37.8	37.8	37.8	65	27.1	0	2	112	0.00	30.230 
17:20	37.5	37.5	37.5	65	26.8	0	2	112	0.00	30.230 
17:25	37.2	37.2	37.2	66	26.9	0	2	112	0.00	30.230 
17:30	36.9	36.9	36.9	67	27.0	0	2	112	0.00	30.235 
17:35	36.5	36.5	36.5	68	27.0	0	1	112	0.00	30.235 
17:40	36.2	36.2	36.2	69	27.0	0	3	112	0.00	30.235 
17:45	36.0	36.0	36.0	69	26.8	0	2	112	0.00	30.235 
17:50	35.8	35.8	35.8	70	27.0	0	2	112	0.00	30.235 
17:55	35.6	35.6	35.6	70	26.8	0	2	112	0.00	30.235 
18:00	35.3	35.3	35.3	71	26.9	0	1	112	0.00	30.233 
18:05	35.0	35.0	35.0	71	26.6	0	1	112	0.00	30.233 
18:10	34.7	34.7	34.7	72	26.6	0	1	112	0.00	30.233 
18:15	34.6	34.6	34.6	72	26.5	0	2	112	0.00	30.228 
18:20	34.3	34.3	34.3	73	26.6	0	2	112	0.00	30.228 
18:25	34.1	34.1	34.1	73	26.4	0	2	112	0.00	30.228 
18:30	34.1	34.1	34.1	73	26.4	0	2	112	0.00	30.228 
18:35	34.0	34.0	34.0	73	26.3	1	2	112	0.00	30.228 
18:40	33.8	33.8	33.8	73	26.1	0	2	112	0.00	30.228 
18:45	33.8	33.8	33.8	73	26.1	0	2	112	0.00	30.232 
18:50	33.5	33.5	33.5	74	26.1	0	1	112	0.00	30.232 
18:55	33.4	33.4	33.4	74	26.0	0	1	112	0.00	30.232 
19:00	32.9	32.9	32.9	75	25.9	0	0	---	0.00	30.234 
19:05	32.8	32.8	32.8	76	26.1	0	1	112	0.00	30.234 
19:10	32.7	32.7	32.7	76	26.0	0	2	112	0.00	30.234 
19:15	32.5	32.5	32.5	77	26.1	0	2	135	0.00	30.236 
19:20	32.5	32.5	32.5	77	26.1	0	3	135	0.00	30.236 
19:25	32.5	32.5	32.5	77	26.1	1	3	135	0.00	30.236 
19:30	32.5	32.5	32.5	77	26.1	0	3	135	0.00	30.236 
19:35	32.5	32.5	32.5	77	26.1	0	1	135	0.00	30.236 
19:40	32.4	32.4	32.4	77	26.0	0	1	135	0.00	30.236 
19:45	32.1	32.1	32.1	77	25.7	0	2	135	0.00	30.231 
19:50	31.8	31.8	31.8	77	25.4	0	1	135	0.00	30.231 
19:55	31.6	31.6	31.6	78	25.5	0	1	135	0.00	30.231 
20:00	31.5	31.5	31.5	78	25.4	0	0	---	0.00	30.226 
20:05	31.2	31.2	31.2	78	25.2	0	0	---	0.00	30.226 
20:10	30.7	30.7	30.7	78	24.7	0	0	---	0.00	30.226 
20:15	30.3	30.3	30.3	79	24.6	0	0	---	0.00	30.222 
20:20	29.8	29.8	29.8	79	24.1	0	0	---	0.00	30.222 
20:25	29.4	29.4	29.4	79	23.7	0	0	---	0.00	30.222 
20:30	29.1	29.1	29.1	80	23.7	0	0	---	0.00	30.224 
20:35	29.1	29.1	29.1	82	24.3	0	0	---	0.00	30.224 
20:40	29.3	29.3	29.3	82	24.5	0	0	---	0.00	30.224 
20:45	29.5	29.5	29.5	83	25.0	0	0	---	0.00	30.222 
20:50	29.7	29.7	29.7	83	25.2	0	1	135	0.00	30.222 
20:55	30.0	30.0	30.0	83	25.5	0	0	---	0.00	30.222 
21:00	30.1	30.1	30.1	83	25.6	0	1	135	0.00	30.221 
21:05	30.3	30.3	30.3	83	25.8	0	0	---	0.00	30.221 
21:10	30.4	30.4	30.4	82	25.6	0	1	135	0.00	30.221 
21:15	30.6	30.6	30.6	83	26.1	0	1	135	0.00	30.217 
21:20	30.9	30.9	30.9	82	26.1	0	1	135	0.00	30.217 
21:25	31.2	31.2	31.2	82	26.4	0	2	135	0.00	30.217 
21:30	31.5	31.5	31.5	82	26.7	0	1	135	0.00	30.215 
21:35	31.6	31.6	31.6	81	26.5	0	1	135	0.00	30.215 
21:40	31.8	31.8	31.8	81	26.6	0	2	135	0.00	30.215 
21:45	31.9	31.9	31.9	81	26.7	0	2	248	0.00	30.201 
21:50	32.1	32.1	32.1	80	26.6	0	0	---	0.00	30.201 
21:55	31.9	31.9	31.9	80	26.4	0	0	---	0.00	30.201 
22:00	31.8	31.8	31.8	80	26.3	0	1	248	0.00	30.200 
22:05	31.8	31.8	31.8	80	26.3	0	0	---	0.00	30.200 
22:10	31.8	31.8	31.8	80	26.3	0	1	248	0.00	30.200 
22:15	31.8	31.8	31.8	80	26.3	0	1	248	0.00	30.196 
22:20	31.8	31.8	31.8	80	26.3	0	1	248	0.00	30.196 
22:25	31.6	31.6	31.6	80	26.2	0	1	248	0.00	30.196 
22:30	31.3	31.3	31.3	79	25.6	0	1	248	0.00	30.195 
22:35	31.0	31.0	31.0	79	25.3	0	1	248	0.00	30.195 
22:40	30.9	30.9	30.9	80	25.5	0	0	---	0.00	30.195 
22:45	30.7	30.7	30.7	80	25.3	0	0	---	0.00	30.195 
22:50	30.6	30.6	30.6	80	25.2	0	0	---	0.00	30.195 
22:55	30.4	30.4	30.4	81	25.3	0	1	248	0.00	30.195 
23:00	30.4	30.4	30.4	81	25.3	0	0	---	0.00	30.194 
23:05	30.6	30.6	30.6	81	25.5	0	0	---	0.00	30.194 
23:10	30.4	30.4	30.4	81	25.3	0	0	---	0.00	30.194 
23:15	30.3	30.3	30.3	81	25.2	0	0	---	0.00	30.194 
23:20	30.0	30.0	30.0	81	24.9	0	0	---	0.00	30.194 
23:25	29.8	29.8	29.8	81	24.7	0	0	---	0.00	30.194 
23:30	29.7	29.7	29.7	81	24.6	0	0	---	0.00	30.196 
23:35	29.4	29.4	29.4	82	24.6	0	0	---	0.00	30.196 
23:40	29.3	29.3	29.3	82	24.5	0	0	---	0.00	30.196 
23:45	29.1	29.1	29.1	83	24.6	0	0	---	0.00	30.197 
23:50	29.0	29.0	29.0	83	24.5	0	0	---	0.00	30.197 
23:55	29.0	29.0	29.0	83	24.5	0	0	---	0.00	30.197 

CoCoRaHS
IN-AL-39
A2 Web Hosting
Creative Commons License
GoDaddy
search engine by freefind advanced

loaded 2018-11-15 16:07:51 • last modified 2010-11-18 10:43:29
Privacy PolicyDisclaimer
• wx.awcolley.com is powered by PmWiki v.2002016 •
• all content (unless otherwise noted) © 2018 A W Colley